createdAt,value
2022-09-18T00:01:34.224Z,99825.00
2022-09-18T00:04:05.357Z,99808.00
2022-09-18T00:06:38.754Z,99809.00
2022-09-18T00:09:09.508Z,99817.00
2022-09-18T00:11:39.920Z,99826.00
2022-09-18T00:14:09.908Z,99824.00
2022-09-18T00:16:38.316Z,99825.00
2022-09-18T00:19:06.886Z,99828.00
2022-09-18T00:21:37.640Z,99827.00
2022-09-18T00:24:06.702Z,99826.00
2022-09-18T00:26:35.731Z,99822.00
2022-09-18T00:29:03.961Z,99825.00
2022-09-18T00:31:35.154Z,99825.00
2022-09-18T00:34:08.936Z,99828.00
2022-09-18T00:36:38.008Z,99825.00
2022-09-18T00:39:07.560Z,99823.00
2022-09-18T00:41:41.938Z,99831.00
2022-09-18T00:44:36.856Z,99834.00
2022-09-18T00:47:10.686Z,99827.00
2022-09-18T00:50:08.456Z,99830.00
2022-09-18T00:52:51.634Z,99838.00
2022-09-18T00:55:24.280Z,99846.00
2022-09-18T00:57:57.237Z,99841.00
2022-09-18T01:00:25.598Z,99852.00
2022-09-18T01:02:54.120Z,99854.00
2022-09-18T01:05:43.929Z,99854.00
2022-09-18T01:08:40.634Z,99855.00
2022-09-18T01:11:26.082Z,99852.00
2022-09-18T01:13:59.853Z,99862.00
2022-09-18T01:16:39.165Z,99864.00
2022-09-18T01:19:11.277Z,99860.00
2022-09-18T01:21:39.378Z,99865.00
2022-09-18T01:24:32.343Z,99867.00
2022-09-18T01:27:06.035Z,99869.00
2022-09-18T01:29:49.178Z,99865.00
2022-09-18T01:32:31.585Z,99878.00
2022-09-18T01:35:47.170Z,99875.00
2022-09-18T01:38:20.232Z,99871.00
2022-09-18T01:40:59.132Z,99870.00
2022-09-18T01:43:29.627Z,99862.00
2022-09-18T01:46:00.363Z,99860.00
2022-09-18T01:48:42.297Z,99869.00
2022-09-18T01:51:20.612Z,99862.00
2022-09-18T01:54:02.672Z,99860.00
2022-09-18T01:56:40.019Z,99851.00
2022-09-18T01:59:12.606Z,99850.00
2022-09-18T02:01:50.805Z,99854.00
2022-09-18T02:04:25.858Z,99866.00
2022-09-18T02:07:01.555Z,99857.00
2022-09-18T02:09:30.263Z,99859.00
2022-09-18T02:12:00.246Z,99857.00
2022-09-18T02:14:36.423Z,99860.00
2022-09-18T02:17:34.731Z,99854.00
2022-09-18T02:20:27.569Z,99858.00
2022-09-18T02:22:58.592Z,99859.00
2022-09-18T02:25:42.791Z,99850.00
2022-09-18T02:28:11.603Z,99844.00
2022-09-18T02:30:40.044Z,99844.00
2022-09-18T02:33:33.361Z,99854.00
2022-09-18T02:36:26.655Z,99852.00
2022-09-18T02:39:15.086Z,99859.00
2022-09-18T02:42:13.067Z,99861.00
2022-09-18T02:45:02.404Z,99846.00
2022-09-18T02:48:07.721Z,99845.00
2022-09-18T02:51:07.778Z,99852.00
2022-09-18T02:53:55.664Z,99837.00
2022-09-18T02:56:43.833Z,99836.00
2022-09-18T02:59:17.591Z,99846.00
2022-09-18T03:01:52.906Z,99850.00
2022-09-18T03:04:24.028Z,99846.00
2022-09-18T03:06:58.827Z,99856.00
2022-09-18T03:09:26.997Z,99853.00
2022-09-18T03:11:56.099Z,99849.00
2022-09-18T03:14:23.970Z,99851.00
2022-09-18T03:16:51.742Z,99859.00
2022-09-18T03:19:19.650Z,99859.00
2022-09-18T03:21:48.509Z,99853.00
2022-09-18T03:24:16.315Z,99855.00
2022-09-18T03:26:46.636Z,99853.00
2022-09-18T03:29:15.159Z,99856.00
2022-09-18T03:31:44.279Z,99857.00
2022-09-18T03:34:12.682Z,99855.00
2022-09-18T03:36:40.634Z,99856.00
2022-09-18T03:39:08.668Z,99852.00
2022-09-18T03:41:36.529Z,99850.00
2022-09-18T03:44:07.437Z,99857.00
2022-09-18T03:46:40.286Z,99858.00
2022-09-18T03:49:09.434Z,99854.00
2022-09-18T03:51:40.044Z,99854.00
2022-09-18T03:54:08.734Z,99854.00
2022-09-18T03:56:59.776Z,99856.00
2022-09-18T03:59:39.109Z,99848.00
2022-09-18T04:02:27.041Z,99860.00
2022-09-18T04:05:13.405Z,99856.00
2022-09-18T04:07:59.810Z,99852.00
2022-09-18T04:10:50.952Z,99855.00
2022-09-18T04:13:19.071Z,99854.00
2022-09-18T04:15:50.592Z,99857.00
2022-09-18T04:18:19.073Z,99857.00
2022-09-18T04:20:48.352Z,99854.00
2022-09-18T04:23:16.212Z,99855.00
2022-09-18T04:25:44.493Z,99852.00
2022-09-18T04:28:13.201Z,99847.00
2022-09-18T04:30:46.391Z,99849.00
2022-09-18T04:33:15.973Z,99850.00
2022-09-18T04:35:44.096Z,99854.00
2022-09-18T04:38:12.570Z,99844.00
2022-09-18T04:40:41.079Z,99851.00
2022-09-18T04:43:10.625Z,99845.00
2022-09-18T04:45:40.085Z,99850.00
2022-09-18T04:48:07.969Z,99848.00
2022-09-18T04:50:37.156Z,99849.00
2022-09-18T04:53:16.697Z,99847.00
2022-09-18T04:55:46.931Z,99851.00
2022-09-18T04:58:17.108Z,99857.00
2022-09-18T05:00:48.697Z,99856.00
2022-09-18T05:03:18.198Z,99856.00
2022-09-18T05:05:46.708Z,99852.00
2022-09-18T05:08:17.396Z,99856.00
2022-09-18T05:10:46.159Z,99847.00
2022-09-18T05:13:17.810Z,99856.00
2022-09-18T05:15:59.241Z,99855.00
2022-09-18T05:18:30.318Z,99851.00
2022-09-18T05:21:04.518Z,99857.00
2022-09-18T05:23:34.721Z,99856.00
2022-09-18T05:26:04.054Z,99848.00
2022-09-18T05:28:32.774Z,99854.00
2022-09-18T05:31:01.657Z,99852.00
2022-09-18T05:33:36.820Z,99856.00
2022-09-18T05:36:05.754Z,99850.00
2022-09-18T05:38:34.795Z,99849.00
2022-09-18T05:41:05.496Z,99851.00
2022-09-18T05:43:33.295Z,99851.00
2022-09-18T05:46:02.664Z,99855.00
2022-09-18T05:48:45.183Z,99852.00
2022-09-18T05:51:13.098Z,99853.00
2022-09-18T05:53:42.418Z,99855.00
2022-09-18T05:56:17.376Z,99862.00
2022-09-18T05:58:45.787Z,99855.00
2022-09-18T06:01:14.698Z,99860.00
2022-09-18T06:04:05.404Z,99858.00
2022-09-18T06:06:47.917Z,99860.00
2022-09-18T06:09:16.681Z,99861.00
2022-09-18T06:11:44.794Z,99861.00
2022-09-18T06:14:12.577Z,99850.00
2022-09-18T06:16:42.505Z,99858.00
2022-09-18T06:19:14.573Z,99853.00
2022-09-18T06:21:45.657Z,99849.00
2022-09-18T06:24:17.000Z,99844.00
2022-09-18T06:27:05.234Z,99847.00
2022-09-18T06:29:33.111Z,99845.00
2022-09-18T06:32:10.730Z,99845.00
2022-09-18T06:34:40.494Z,99849.00
2022-09-18T06:37:11.660Z,99848.00
2022-09-18T06:39:42.361Z,99849.00
2022-09-18T06:42:17.165Z,99854.00
2022-09-18T06:45:11.920Z,99855.00
2022-09-18T06:47:46.497Z,99855.00
2022-09-18T06:50:14.412Z,99856.00
2022-09-18T06:52:46.170Z,99856.00
2022-09-18T06:55:14.195Z,99851.00
2022-09-18T06:57:42.941Z,99854.00
2022-09-18T07:00:13.808Z,99854.00
2022-09-18T07:02:41.764Z,99868.00
2022-09-18T07:05:45.899Z,99872.00
2022-09-18T07:08:25.699Z,99871.00
2022-09-18T07:11:02.935Z,99872.00
2022-09-18T07:13:32.693Z,99873.00
2022-09-18T07:16:01.678Z,99871.00
2022-09-18T07:18:29.653Z,99869.00
2022-09-18T07:20:59.680Z,99869.00
2022-09-18T07:23:36.180Z,99870.00
2022-09-18T07:26:05.015Z,99872.00
2022-09-18T07:28:34.314Z,99874.00
2022-09-18T07:31:25.255Z,99865.00
2022-09-18T07:33:56.430Z,99871.00
2022-09-18T07:36:28.268Z,99870.00
2022-09-18T07:38:56.282Z,99867.00
2022-09-18T07:41:27.282Z,99866.00
2022-09-18T07:43:55.789Z,99871.00
2022-09-18T07:46:25.108Z,99864.00
2022-09-18T07:48:57.701Z,99870.00
2022-09-18T07:51:29.814Z,99857.00
2022-09-18T07:53:59.832Z,99869.00
2022-09-18T07:56:49.040Z,99866.00
2022-09-18T07:59:21.415Z,99870.00
2022-09-18T08:01:56.112Z,99859.00
2022-09-18T08:04:26.552Z,99869.00
2022-09-18T08:07:06.001Z,99857.00
2022-09-18T08:09:53.737Z,99873.00
2022-09-18T08:13:04.374Z,99868.00
2022-09-18T08:16:04.834Z,99863.00
2022-09-18T08:18:51.326Z,99866.00
2022-09-18T08:21:45.059Z,99873.00
2022-09-18T08:24:19.872Z,99865.00
2022-09-18T08:26:53.996Z,99865.00
2022-09-18T08:29:23.391Z,99864.00
2022-09-18T08:31:59.715Z,99861.00
2022-09-18T08:34:27.542Z,99855.00
2022-09-18T08:36:56.361Z,99856.00
2022-09-18T08:39:47.090Z,99854.00
2022-09-18T08:42:58.592Z,99856.00
2022-09-18T08:45:26.623Z,99854.00
2022-09-18T08:48:05.686Z,99852.00
2022-09-18T08:50:43.136Z,99851.00
2022-09-18T08:53:35.217Z,99851.00
2022-09-18T08:56:24.059Z,99840.00
2022-09-18T08:59:24.555Z,99842.00
2022-09-18T09:01:56.245Z,99837.00
2022-09-18T09:04:29.974Z,99840.00
2022-09-18T09:07:36.452Z,99853.00
2022-09-18T09:10:31.243Z,99860.00
2022-09-18T09:13:26.649Z,99854.00
2022-09-18T09:16:05.531Z,99852.00
2022-09-18T09:18:48.664Z,99838.00
2022-09-18T09:21:25.543Z,99853.00
2022-09-18T09:24:21.361Z,99855.00
2022-09-18T09:27:20.522Z,99862.00
2022-09-18T09:30:15.635Z,99844.00
2022-09-18T09:33:25.419Z,99857.00
2022-09-18T09:36:15.502Z,99859.00
2022-09-18T09:39:06.788Z,99843.00
2022-09-18T09:42:03.708Z,99846.00
2022-09-18T09:44:50.528Z,99843.00
2022-09-18T09:47:53.553Z,99843.00
2022-09-18T09:50:52.902Z,99848.00
2022-09-18T09:53:25.308Z,99846.00
2022-09-18T09:56:09.137Z,99843.00
2022-09-18T09:58:46.179Z,99842.00
2022-09-18T10:01:27.072Z,99841.00
2022-09-18T10:04:17.569Z,99838.00
2022-09-18T10:07:15.541Z,99836.00
2022-09-18T10:09:59.223Z,99821.00
2022-09-18T10:12:45.873Z,99809.00
2022-09-18T10:15:34.479Z,99819.00
2022-09-18T10:18:07.000Z,99806.00
2022-09-18T10:20:36.573Z,99828.00
2022-09-18T10:23:21.481Z,99832.00
2022-09-18T10:25:56.005Z,99826.00
2022-09-18T10:28:26.083Z,99829.00
2022-09-18T10:30:59.455Z,99830.00
2022-09-18T10:33:43.398Z,99838.00
2022-09-18T10:36:24.444Z,99823.00
2022-09-18T10:38:55.893Z,99813.00
2022-09-18T10:41:43.363Z,99818.00
2022-09-18T10:44:35.751Z,99811.00
2022-09-18T10:47:24.947Z,99806.00
2022-09-18T10:49:58.744Z,99778.00
2022-09-18T10:52:45.061Z,99788.00
2022-09-18T10:55:25.371Z,99790.00
2022-09-18T10:57:57.616Z,99793.00
2022-09-18T11:00:35.399Z,99791.00
2022-09-18T11:03:10.307Z,99787.00
2022-09-18T11:05:47.073Z,99784.00
2022-09-18T11:08:18.735Z,99788.00
2022-09-18T11:10:51.529Z,99787.00
2022-09-18T11:13:27.219Z,99795.00
2022-09-18T11:16:03.826Z,99800.00
2022-09-18T11:18:33.049Z,99793.00
2022-09-18T11:21:05.190Z,99788.00
2022-09-18T11:23:37.705Z,99788.00
2022-09-18T11:26:20.672Z,99786.00
2022-09-18T11:29:06.684Z,99791.00
2022-09-18T11:31:48.363Z,99797.00
2022-09-18T11:34:31.550Z,99800.00
2022-09-18T11:37:06.987Z,99791.00
2022-09-18T11:39:53.973Z,99801.00
2022-09-18T11:42:22.669Z,99804.00
2022-09-18T11:44:52.822Z,99792.00
2022-09-18T11:47:38.213Z,99784.00
2022-09-18T11:50:22.315Z,99784.00
2022-09-18T11:52:53.185Z,99787.00
2022-09-18T11:55:58.955Z,99785.00
2022-09-18T11:58:49.144Z,99776.00
2022-09-18T12:01:41.009Z,99765.00
2022-09-18T12:04:54.953Z,99769.00
2022-09-18T12:07:40.927Z,99763.00
2022-09-18T12:10:46.087Z,99762.00
2022-09-18T12:13:18.472Z,99762.00
2022-09-18T12:16:00.620Z,99764.00
2022-09-18T12:18:51.039Z,99767.00
2022-09-18T12:21:22.467Z,99765.00
2022-09-18T12:23:53.476Z,99773.00
2022-09-18T12:26:43.610Z,99772.00
2022-09-18T12:29:35.780Z,99785.00
2022-09-18T12:32:25.967Z,99785.00
2022-09-18T12:35:08.538Z,99782.00
2022-09-18T12:38:22.490Z,99791.00
2022-09-18T12:41:19.614Z,99775.00
2022-09-18T12:44:08.145Z,99778.00
2022-09-18T12:46:50.112Z,99777.00
2022-09-18T12:49:19.250Z,99776.00
2022-09-18T12:52:08.290Z,99783.00
2022-09-18T12:54:39.697Z,99779.00
2022-09-18T12:57:13.343Z,99776.00
2022-09-18T13:00:02.151Z,99774.00
2022-09-18T13:03:01.177Z,99778.00
2022-09-18T13:05:38.145Z,99782.00
2022-09-18T13:08:32.310Z,99788.00
2022-09-18T13:11:32.127Z,99784.00
2022-09-18T13:14:16.789Z,99798.00
2022-09-18T13:16:51.961Z,99822.00
2022-09-18T13:19:19.711Z,99824.00
2022-09-18T13:21:52.839Z,99824.00
2022-09-18T13:24:34.438Z,99809.00
2022-09-18T13:27:05.458Z,99809.00
2022-09-18T13:29:47.176Z,99803.00
2022-09-18T13:32:21.663Z,99821.00
2022-09-18T13:35:04.417Z,99807.00
2022-09-18T13:37:32.147Z,99810.00
2022-09-18T13:40:16.938Z,99801.00
2022-09-18T13:42:44.828Z,99799.00
2022-09-18T13:45:25.466Z,99795.00
2022-09-18T13:48:20.398Z,99799.00
2022-09-18T13:50:58.999Z,99802.00
2022-09-18T13:53:45.753Z,99786.00
2022-09-18T13:56:15.583Z,99790.00
2022-09-18T13:59:09.785Z,99787.00
2022-09-18T14:01:43.675Z,99787.00
2022-09-18T14:04:40.754Z,99779.00
2022-09-18T14:07:31.476Z,99776.00
2022-09-18T14:10:04.758Z,99778.00
2022-09-18T14:12:36.758Z,99765.00
2022-09-18T14:15:06.638Z,99757.00
2022-09-18T14:17:38.298Z,99759.00
2022-09-18T14:20:19.924Z,99748.00
2022-09-18T14:22:47.826Z,99744.00
2022-09-18T14:25:15.989Z,99749.00
2022-09-18T14:27:58.295Z,99740.00
2022-09-18T14:30:29.327Z,99741.00
2022-09-18T14:33:11.381Z,99733.00
2022-09-18T14:35:57.312Z,99720.00
2022-09-18T14:38:36.852Z,99728.00
2022-09-18T14:41:19.489Z,99732.00
2022-09-18T14:44:06.614Z,99741.00
2022-09-18T14:46:34.583Z,99754.00
2022-09-18T14:49:03.360Z,99776.00
2022-09-18T14:51:44.792Z,99797.00
2022-09-18T14:54:27.413Z,99818.00
2022-09-18T14:56:58.763Z,99826.00
2022-09-18T14:59:26.415Z,99819.00
2022-09-18T15:01:54.162Z,99823.00
2022-09-18T15:04:24.374Z,99830.00
2022-09-18T15:06:54.014Z,99813.00
2022-09-18T15:09:28.035Z,99808.00
2022-09-18T15:12:02.500Z,99796.00
2022-09-18T15:14:45.495Z,99782.00
2022-09-18T15:17:21.308Z,99793.00
2022-09-18T15:20:00.255Z,99792.00
2022-09-18T15:22:29.810Z,99784.00
2022-09-18T15:25:00.993Z,99793.00
2022-09-18T15:27:30.079Z,99787.00
2022-09-18T15:30:14.507Z,99788.00
2022-09-18T15:32:51.750Z,99781.00
2022-09-18T15:35:24.029Z,99767.00
2022-09-18T15:38:03.921Z,99751.00
2022-09-18T15:40:37.480Z,99749.00
2022-09-18T15:43:26.128Z,99724.00
2022-09-18T15:46:06.380Z,99723.00
2022-09-18T15:48:48.119Z,99732.00
2022-09-18T15:51:16.717Z,99733.00
2022-09-18T15:54:07.801Z,99722.00
2022-09-18T15:56:37.519Z,99715.00
2022-09-18T15:59:07.524Z,99722.00
2022-09-18T16:01:37.364Z,99716.00
2022-09-18T16:04:27.607Z,99710.00
2022-09-18T16:07:25.196Z,99719.00
2022-09-18T16:09:53.089Z,99721.00
2022-09-18T16:12:36.860Z,99721.00
2022-09-18T16:15:25.817Z,99720.00
2022-09-18T16:17:59.462Z,99730.00
2022-09-18T16:20:53.829Z,99721.00
2022-09-18T16:23:29.138Z,99730.00
2022-09-18T16:26:13.468Z,99734.00
2022-09-18T16:28:43.431Z,99745.00
2022-09-18T16:31:16.935Z,99739.00
2022-09-18T16:33:57.548Z,99743.00
2022-09-18T16:36:27.913Z,99748.00
2022-09-18T16:38:57.238Z,99743.00
2022-09-18T16:41:25.623Z,99747.00
2022-09-18T16:43:54.206Z,99744.00
2022-09-18T16:46:28.735Z,99731.00
2022-09-18T16:48:56.750Z,99725.00
2022-09-18T16:51:24.658Z,99721.00
2022-09-18T16:53:54.991Z,99727.00
2022-09-18T16:56:27.766Z,99726.00
2022-09-18T16:58:57.128Z,99717.00
2022-09-18T17:01:25.041Z,99712.00
2022-09-18T17:03:52.939Z,99709.00
2022-09-18T17:06:20.841Z,99691.00
2022-09-18T17:08:49.244Z,99688.00
2022-09-18T17:11:17.104Z,99684.00
2022-09-18T17:13:47.399Z,99696.00
2022-09-18T17:16:30.382Z,99705.00
2022-09-18T17:19:03.286Z,99705.00
2022-09-18T17:21:31.291Z,99699.00
2022-09-18T17:24:02.612Z,99705.00
2022-09-18T17:26:31.959Z,99709.00
2022-09-18T17:29:00.320Z,99713.00
2022-09-18T17:31:28.369Z,99699.00
2022-09-18T17:33:57.053Z,99705.00
2022-09-18T17:36:25.339Z,99696.00
2022-09-18T17:38:53.464Z,99708.00
2022-09-18T17:41:21.634Z,99698.00
2022-09-18T17:43:53.995Z,99713.00
2022-09-18T17:46:22.209Z,99707.00
2022-09-18T17:48:53.797Z,99716.00
2022-09-18T17:51:23.011Z,99712.00
2022-09-18T17:53:59.390Z,99711.00
2022-09-18T17:56:30.317Z,99697.00
2022-09-18T17:59:00.447Z,99712.00
2022-09-18T18:01:29.550Z,99705.00
2022-09-18T18:03:57.503Z,99710.00
2022-09-18T18:06:26.063Z,99710.00
2022-09-18T18:08:54.197Z,99715.00
2022-09-18T18:11:23.562Z,99716.00
2022-09-18T18:13:53.002Z,99708.00
2022-09-18T18:16:31.464Z,99704.00
2022-09-18T18:19:01.864Z,99700.00
2022-09-18T18:21:30.788Z,99693.00
2022-09-18T18:24:02.919Z,99687.00
2022-09-18T18:26:31.252Z,99683.00
2022-09-18T18:28:59.466Z,99686.00
2022-09-18T18:31:27.491Z,99688.00
2022-09-18T18:33:56.836Z,99688.00
2022-09-18T18:36:29.092Z,99690.00
2022-09-18T18:38:59.187Z,99688.00
2022-09-18T18:41:29.378Z,99692.00
2022-09-18T18:43:59.377Z,99685.00
2022-09-18T18:46:28.843Z,99692.00
2022-09-18T18:49:02.045Z,99689.00
2022-09-18T18:51:32.370Z,99687.00
2022-09-18T18:54:03.714Z,99694.00
2022-09-18T18:56:34.331Z,99687.00
2022-09-18T18:59:03.953Z,99687.00
2022-09-18T19:01:32.810Z,99692.00
2022-09-18T19:04:03.025Z,99695.00
2022-09-18T19:06:31.573Z,99691.00
2022-09-18T19:09:01.371Z,99693.00
2022-09-18T19:11:43.033Z,99695.00
2022-09-18T19:14:20.793Z,99703.00
2022-09-18T19:16:49.544Z,99694.00
2022-09-18T19:19:18.834Z,99699.00
2022-09-18T19:21:46.817Z,99693.00
2022-09-18T19:24:15.765Z,99696.00
2022-09-18T19:26:44.386Z,99694.00
2022-09-18T19:29:15.195Z,99704.00
2022-09-18T19:31:44.531Z,99701.00
2022-09-18T19:34:18.686Z,99701.00
2022-09-18T19:36:50.304Z,99698.00
2022-09-18T19:39:21.098Z,99688.00
2022-09-18T19:41:59.411Z,99688.00
2022-09-18T19:44:42.065Z,99706.00
2022-09-18T19:47:29.016Z,99700.00
2022-09-18T19:49:58.621Z,99698.00
2022-09-18T19:52:28.824Z,99705.00
2022-09-18T19:54:58.296Z,99703.00
2022-09-18T19:57:28.022Z,99696.00
2022-09-18T19:59:57.428Z,99695.00
2022-09-18T20:02:25.687Z,99701.00
2022-09-18T20:04:57.087Z,99698.00
2022-09-18T20:07:24.980Z,99700.00
2022-09-18T20:09:52.795Z,99696.00
2022-09-18T20:12:20.588Z,99686.00
2022-09-18T20:14:48.504Z,99676.00
2022-09-18T20:17:16.650Z,99680.00
2022-09-18T20:19:45.789Z,99694.00
2022-09-18T20:22:14.688Z,99690.00
2022-09-18T20:24:44.770Z,99688.00
2022-09-18T20:27:13.123Z,99691.00
2022-09-18T20:29:41.390Z,99692.00
2022-09-18T20:32:09.321Z,99697.00
2022-09-18T20:34:37.197Z,99695.00
2022-09-18T20:37:07.676Z,99682.00
2022-09-18T20:39:36.210Z,99688.00
2022-09-18T20:42:04.871Z,99685.00
2022-09-18T20:44:35.320Z,99697.00
2022-09-18T20:47:07.149Z,99687.00
2022-09-18T20:49:35.029Z,99696.00
2022-09-18T20:52:03.617Z,99693.00
2022-09-18T20:54:31.453Z,99696.00
2022-09-18T20:57:00.638Z,99697.00
2022-09-18T20:59:28.445Z,99690.00
2022-09-18T21:01:56.662Z,99694.00
2022-09-18T21:04:24.562Z,99687.00
2022-09-18T21:06:56.341Z,99693.00
2022-09-18T21:09:26.725Z,99694.00
2022-09-18T21:11:57.004Z,99695.00
2022-09-18T21:14:25.678Z,99704.00
2022-09-18T21:16:54.392Z,99694.00
2022-09-18T21:19:24.556Z,99701.00
2022-09-18T21:21:52.409Z,99702.00
2022-09-18T21:24:22.216Z,99695.00
2022-09-18T21:26:50.610Z,99698.00
2022-09-18T21:29:26.436Z,99705.00
2022-09-18T21:31:59.470Z,99708.00
2022-09-18T21:34:31.628Z,99713.00
2022-09-18T21:37:04.559Z,99709.00
2022-09-18T21:39:33.279Z,99710.00
2022-09-18T21:42:02.313Z,99708.00
2022-09-18T21:44:31.941Z,99725.00
2022-09-18T21:47:02.446Z,99721.00
2022-09-18T21:49:30.677Z,99722.00
2022-09-18T21:52:00.629Z,99718.00
2022-09-18T21:54:28.834Z,99729.00
2022-09-18T21:56:56.799Z,99727.00
2022-09-18T21:59:31.999Z,99729.00
2022-09-18T22:02:00.966Z,99727.00
2022-09-18T22:04:31.546Z,99730.00
2022-09-18T22:07:01.588Z,99731.00
2022-09-18T22:09:32.271Z,99736.00
2022-09-18T22:12:01.496Z,99743.00
2022-09-18T22:14:32.589Z,99748.00
2022-09-18T22:17:06.107Z,99752.00
2022-09-18T22:19:38.041Z,99752.00
2022-09-18T22:22:07.094Z,99752.00
2022-09-18T22:24:35.109Z,99760.00
2022-09-18T22:27:08.785Z,99758.00
2022-09-18T22:29:38.622Z,99758.00
2022-09-18T22:32:07.038Z,99763.00
2022-09-18T22:34:35.380Z,99766.00
2022-09-18T22:37:03.302Z,99758.00
2022-09-18T22:39:31.297Z,99762.00
2022-09-18T22:41:59.268Z,99763.00
2022-09-18T22:44:27.054Z,99763.00
2022-09-18T22:46:55.110Z,99765.00
2022-09-18T22:49:24.190Z,99775.00
2022-09-18T22:51:52.765Z,99770.00
2022-09-18T22:54:25.644Z,99781.00
2022-09-18T22:56:53.905Z,99774.00
2022-09-18T22:59:24.060Z,99778.00
2022-09-18T23:02:01.728Z,99772.00
2022-09-18T23:04:31.314Z,99772.00
2022-09-18T23:07:00.804Z,99783.00
2022-09-18T23:09:29.591Z,99788.00
2022-09-18T23:11:58.401Z,99785.00
2022-09-18T23:14:31.644Z,99783.00
2022-09-18T23:17:00.734Z,99785.00
2022-09-18T23:19:32.306Z,99796.00
2022-09-18T23:21:59.975Z,99788.00
2022-09-18T23:24:28.279Z,99796.00
2022-09-18T23:26:58.670Z,99799.00
2022-09-18T23:29:27.919Z,99800.00
2022-09-18T23:31:59.459Z,99805.00
2022-09-18T23:34:28.689Z,99807.00
2022-09-18T23:36:58.370Z,99809.00
2022-09-18T23:39:31.154Z,99817.00
2022-09-18T23:42:01.527Z,99817.00
2022-09-18T23:44:31.355Z,99812.00
2022-09-18T23:47:00.421Z,99812.00
2022-09-18T23:49:29.072Z,99817.00
2022-09-18T23:51:57.542Z,99823.00
2022-09-18T23:54:28.080Z,99824.00
2022-09-18T23:56:56.373Z,99824.00
2022-09-18T23:59:25.509Z,99824.00
